MUHG/HOG METAR and TAF weather

Enter ICAO airport designator
Station Type Date Time Source
MUHG METAR 2022/08/12 14:50 UTC NOAA

MUHG 121450Z 08004KT 030V130 9999 SCT030 SCT033 30/22 Q1016


Station Type Date Time Source
MUHG Decoded METAR 2022/08/12 14:50 UTC NOAA

Holguin Civ / Mil , Cuba (MUHG) 20-47N 076-19W
Aug 12, 2022 - 10:50 AM EDT / 2022.08.12 1450 UTC
Wind: from the E (080 degrees) at 5 MPH (4 KT) (direction variable):0
Visibility: greater than 7 mile(s):0
Sky conditions: partly cloudy
Temperature: 86 F (30 C)
Heat index: 91.8 F (33.2 C):1
Dew Point: 71 F (22 C)
Relative Humidity: 62%
Pressure (altimeter): 30.00 in. Hg (1016 hPa)
ob: MUHG 121450Z 08004KT 030V130 9999 SCT030 SCT033 30/22 Q1016
cycle: 15

Station Type Date Time Source
MUHG TAF 2022/08/12 12:03 UTC NOAA

TAF MUHG 121100Z 1212/1312 VRB03KT 9000 FEW020
BECMG 1215/1217 09008KT SCT050
TEMPO 1219/1224 SCT018CB BKN020

Example: see airport list